sensor_id;sensor_type;location;lat;lon;timestamp;pressure;altitude;pressure_sealevel;temperature;humidity
29163;BME280;20331;53.144;8.208;2022-09-02T00:09:06;101921.97;;;15.82;69.03
29163;BME280;20331;53.144;8.208;2022-09-02T00:19:29;101923.44;;;15.74;69.44
29163;BME280;20331;53.144;8.208;2022-09-02T00:29:51;101928.47;;;15.52;70.21
29163;BME280;20331;53.144;8.208;2022-09-02T00:40:14;101919.66;;;15.53;70.94
29163;BME280;20331;53.144;8.208;2022-09-02T00:50:40;101913.53;;;15.40;72.23
29163;BME280;20331;53.144;8.208;2022-09-02T01:01:02;101909.31;;;15.25;72.48
29163;BME280;20331;53.144;8.208;2022-09-02T01:11:28;101908.41;;;15.12;73.27
29163;BME280;20331;53.144;8.208;2022-09-02T01:21:54;101901.03;;;15.17;73.11
29163;BME280;20331;53.144;8.208;2022-09-02T01:32:16;101891.56;;;15.02;73.79
29163;BME280;20331;53.144;8.208;2022-09-02T01:42:42;101883.75;;;14.88;74.71
29163;BME280;20331;53.144;8.208;2022-09-02T01:53:04;101871.16;;;14.93;74.86
29163;BME280;20331;53.144;8.208;2022-09-02T02:03:26;101872.16;;;14.78;75.21
29163;BME280;20331;53.144;8.208;2022-09-02T02:13:49;101872.25;;;14.50;76.80
29163;BME280;20331;53.144;8.208;2022-09-02T02:24:11;101869.22;;;14.56;76.41
29163;BME280;20331;53.144;8.208;2022-09-02T02:34:33;101859.16;;;14.50;76.78
29163;BME280;20331;53.144;8.208;2022-09-02T02:44:55;101851.16;;;14.52;76.91
29163;BME280;20331;53.144;8.208;2022-09-02T02:55:16;101853.53;;;14.43;77.60
29163;BME280;20331;53.144;8.208;2022-09-02T03:05:39;101838.72;;;14.42;77.66
29163;BME280;20331;53.144;8.208;2022-09-02T03:16:03;101838.78;;;14.28;78.66
29163;BME280;20331;53.144;8.208;2022-09-02T03:26:25;101836.75;;;14.19;79.57
29163;BME280;20331;53.144;8.208;2022-09-02T03:36:46;101822.69;;;14.06;79.53
29163;BME280;20331;53.144;8.208;2022-09-02T03:47:08;101818.75;;;14.13;79.63
29163;BME280;20331;53.144;8.208;2022-09-02T03:57:30;101821.19;;;14.02;79.97
29163;BME280;20331;53.144;8.208;2022-09-02T04:07:54;101811.09;;;14.10;79.54
29163;BME280;20331;53.144;8.208;2022-09-02T04:18:17;101805.38;;;14.03;79.84
29163;BME280;20331;53.144;8.208;2022-09-02T04:28:38;101808.69;;;13.79;80.63
29163;BME280;20331;53.144;8.208;2022-09-02T04:39:00;101801.34;;;13.98;79.98
29163;BME280;20331;53.144;8.208;2022-09-02T04:49:22;101797.63;;;13.88;80.43
29163;BME280;20331;53.144;8.208;2022-09-02T04:59:44;101796.81;;;13.73;81.20
29163;BME280;20331;53.144;8.208;2022-09-02T05:10:06;101796.72;;;13.61;82.84
29163;BME280;20331;53.144;8.208;2022-09-02T05:20:28;101802.72;;;13.63;82.84
29163;BME280;20331;53.144;8.208;2022-09-02T05:30:49;101801.38;;;13.70;83.29
29163;BME280;20331;53.144;8.208;2022-09-02T05:41:15;101804.75;;;13.58;83.79
29163;BME280;20331;53.144;8.208;2022-09-02T05:51:41;101801.78;;;13.50;84.69
29163;BME280;20331;53.144;8.208;2022-09-02T06:02:03;101798.75;;;13.70;83.57
29163;BME280;20331;53.144;8.208;2022-09-02T06:12:24;101791.81;;;13.97;83.05
29163;BME280;20331;53.144;8.208;2022-09-02T06:22:46;101785.13;;;14.05;83.90
29163;BME280;20331;53.144;8.208;2022-09-02T06:33:10;101797.00;;;14.51;82.40
29163;BME280;20331;53.144;8.208;2022-09-02T06:43:32;101797.16;;;14.74;82.58
29163;BME280;20331;53.144;8.208;2022-09-02T06:54:04;101798.69;;;15.03;81.80
29163;BME280;20331;53.144;8.208;2022-09-02T07:04:27;101795.66;;;15.59;78.92
29163;BME280;20331;53.144;8.208;2022-09-02T07:15:08;101784.66;;;15.54;79.19
29163;BME280;20331;53.144;8.208;2022-09-02T07:25:30;101778.28;;;15.81;81.72
29163;BME280;20331;53.144;8.208;2022-09-02T07:35:52;101768.44;;;15.60;90.36
29163;BME280;20331;53.144;8.208;2022-09-02T07:46:14;101773.44;;;15.88;87.76
29163;BME280;20331;53.144;8.208;2022-09-02T07:56:36;101774.81;;;16.17;84.39
29163;BME280;20331;53.144;8.208;2022-09-02T08:06:58;101779.16;;;16.41;84.61
29163;BME280;20331;53.144;8.208;2022-09-02T08:17:19;101775.13;;;16.82;78.69
29163;BME280;20331;53.144;8.208;2022-09-02T08:27:41;101769.78;;;16.95;78.67
29163;BME280;20331;53.144;8.208;2022-09-02T08:38:02;101764.47;;;17.51;75.26
29163;BME280;20331;53.144;8.208;2022-09-02T08:48:33;101753.81;;;17.63;74.86
29163;BME280;20331;53.144;8.208;2022-09-02T08:58:56;101759.19;;;18.37;72.27
29163;BME280;20331;53.144;8.208;2022-09-02T09:19:54;101743.84;;;18.62;72.08
29163;BME280;20331;53.144;8.208;2022-09-02T09:30:18;101718.38;;;19.02;71.66
29163;BME280;20331;53.144;8.208;2022-09-02T09:40:40;101708.06;;;19.20;71.03
29163;BME280;20331;53.144;8.208;2022-09-02T10:01:28;101700.38;;;18.04;79.23
29163;BME280;20331;53.144;8.208;2022-09-02T10:11:55;101694.31;;;18.75;72.63
29163;BME280;20331;53.144;8.208;2022-09-02T11:04:48;101618.53;;;21.04;61.05
29163;BME280;20331;53.144;8.208;2022-09-02T11:15:19;101614.13;;;21.22;58.42
29163;BME280;20331;53.144;8.208;2022-09-02T11:25:48;101608.19;;;21.55;57.28
29163;BME280;20331;53.144;8.208;2022-09-02T11:36:12;101592.16;;;22.09;53.07
29163;BME280;20331;53.144;8.208;2022-09-02T11:57:24;101569.00;;;22.01;46.89
29163;BME280;20331;53.144;8.208;2022-09-02T12:07:47;101573.66;;;22.67;44.88
29163;BME280;20331;53.144;8.208;2022-09-02T12:18:27;101565.16;;;22.97;43.75
29163;BME280;20331;53.144;8.208;2022-09-02T12:28:52;101551.59;;;22.49;46.03
29163;BME280;20331;53.144;8.208;2022-09-02T12:49:52;101517.72;;;23.26;42.22
29163;BME280;20331;53.144;8.208;2022-09-02T13:00:38;101516.00;;;22.42;45.42
29163;BME280;20331;53.144;8.208;2022-09-02T13:11:34;101502.84;;;22.66;45.63
29163;BME280;20331;53.144;8.208;2022-09-02T13:32:41;101477.78;;;23.34;44.02
29163;BME280;20331;53.144;8.208;2022-09-02T13:43:16;101473.44;;;23.09;45.18
29163;BME280;20331;53.144;8.208;2022-09-02T13:53:41;101464.50;;;23.26;48.77
29163;BME280;20331;53.144;8.208;2022-09-02T14:04:19;101460.66;;;23.36;42.77
29163;BME280;20331;53.144;8.208;2022-09-02T14:14:41;101455.13;;;23.06;45.90
29163;BME280;20331;53.144;8.208;2022-09-02T14:25:14;101433.53;;;23.33;43.62
29163;BME280;20331;53.144;8.208;2022-09-02T14:35:36;101428.91;;;23.27;44.93
29163;BME280;20331;53.144;8.208;2022-09-02T14:46:04;101413.09;;;23.34;44.66
29163;BME280;20331;53.144;8.208;2022-09-02T14:57:03;101416.50;;;24.06;40.95
29163;BME280;20331;53.144;8.208;2022-09-02T15:07:25;101411.94;;;23.36;41.94
29163;BME280;20331;53.144;8.208;2022-09-02T15:17:47;101405.56;;;22.97;44.22
29163;BME280;20331;53.144;8.208;2022-09-02T15:28:08;101405.78;;;23.36;42.61
29163;BME280;20331;53.144;8.208;2022-09-02T15:38:31;101398.63;;;23.28;43.16
29163;BME280;20331;53.144;8.208;2022-09-02T15:48:54;101395.59;;;23.47;43.33
29163;BME280;20331;53.144;8.208;2022-09-02T15:59:23;101390.13;;;23.48;41.65
29163;BME280;20331;53.144;8.208;2022-09-02T16:09:45;101376.13;;;23.78;43.06
29163;BME280;20331;53.144;8.208;2022-09-02T16:20:07;101364.41;;;23.95;42.42
29163;BME280;20331;53.144;8.208;2022-09-02T16:30:28;101358.19;;;23.33;42.56
29163;BME280;20331;53.144;8.208;2022-09-02T16:40:54;101342.38;;;23.55;43.07
29163;BME280;20331;53.144;8.208;2022-09-02T16:51:16;101335.25;;;23.32;42.20
29163;BME280;20331;53.144;8.208;2022-09-02T17:01:38;101331.06;;;22.97;45.51
29163;BME280;20331;53.144;8.208;2022-09-02T17:12:00;101332.34;;;22.61;45.68
29163;BME280;20331;53.144;8.208;2022-09-02T17:22:22;101326.31;;;22.36;46.12
29163;BME280;20331;53.144;8.208;2022-09-02T17:32:48;101330.97;;;22.34;46.15
29163;BME280;20331;53.144;8.208;2022-09-02T17:43:15;101345.72;;;21.95;45.70
29163;BME280;20331;53.144;8.208;2022-09-02T17:53:39;101347.59;;;21.51;47.54
29163;BME280;20331;53.144;8.208;2022-09-02T18:04:17;101348.25;;;21.28;48.76
29163;BME280;20331;53.144;8.208;2022-09-02T18:14:46;101344.84;;;21.18;48.77
29163;BME280;20331;53.144;8.208;2022-09-02T18:25:32;101354.28;;;20.95;49.37
29163;BME280;20331;53.144;8.208;2022-09-02T18:36:11;101361.81;;;20.73;50.58
29163;BME280;20331;53.144;8.208;2022-09-02T18:46:44;101373.81;;;20.50;51.22
29163;BME280;20331;53.144;8.208;2022-09-02T18:57:09;101380.88;;;20.32;52.32
29163;BME280;20331;53.144;8.208;2022-09-02T19:07:31;101398.56;;;20.14;51.78
29163;BME280;20331;53.144;8.208;2022-09-02T19:18:11;101401.09;;;19.97;52.67
29163;BME280;20331;53.144;8.208;2022-09-02T19:28:33;101398.66;;;19.67;52.80
29163;BME280;20331;53.144;8.208;2022-09-02T19:38:54;101401.72;;;19.72;52.51
29163;BME280;20331;53.144;8.208;2022-09-02T19:49:16;101410.09;;;19.58;53.69
29163;BME280;20331;53.144;8.208;2022-09-02T19:59:38;101420.31;;;19.34;55.13
29163;BME280;20331;53.144;8.208;2022-09-02T20:10:00;101423.34;;;19.30;54.37
29163;BME280;20331;53.144;8.208;2022-09-02T20:20:21;101421.41;;;19.22;54.81
29163;BME280;20331;53.144;8.208;2022-09-02T20:30:51;101423.75;;;19.06;56.25
29163;BME280;20331;53.144;8.208;2022-09-02T20:41:20;101426.22;;;18.89;55.90
29163;BME280;20331;53.144;8.208;2022-09-02T21:02:12;101416.91;;;18.94;55.45
29163;BME280;20331;53.144;8.208;2022-09-02T21:12:40;101425.66;;;18.85;55.87
29163;BME280;20331;53.144;8.208;2022-09-02T21:23:10;101423.16;;;19.03;54.87
29163;BME280;20331;53.144;8.208;2022-09-02T21:33:34;101428.31;;;18.95;54.96
29163;BME280;20331;53.144;8.208;2022-09-02T21:55:42;101424.88;;;19.13;53.72
29163;BME280;20331;53.144;8.208;2022-09-02T22:06:25;101418.75;;;19.22;52.60
29163;BME280;20331;53.144;8.208;2022-09-02T22:16:57;101412.91;;;19.28;52.58
29163;BME280;20331;53.144;8.208;2022-09-02T22:27:37;101411.25;;;19.27;52.13
29163;BME280;20331;53.144;8.208;2022-09-02T22:38:20;101411.19;;;19.08;52.75
29163;BME280;20331;53.144;8.208;2022-09-02T22:48:55;101398.84;;;18.99;53.04
29163;BME280;20331;53.144;8.208;2022-09-02T22:59:46;101403.69;;;18.75;53.02
29163;BME280;20331;53.144;8.208;2022-09-02T23:10:17;101400.75;;;18.78;53.71
29163;BME280;20331;53.144;8.208;2022-09-02T23:42:23;101392.94;;;18.19;56.32
29163;BME280;20331;53.144;8.208;2022-09-02T23:52:52;101378.13;;;17.97;56.36
